Portada
METAR-TAF:

METAR-TAF

Aeropuertos :

Parsabad, Irán

latitud: 39-36-13N, longitud: 47-52-53E, altitud: 77 m

Observación

El informe se hizo hace 38 minutos, a las 02:00 UTC
Viento 4 kt del sur-sureste
Temperatura 16°C
Humedad 77%
Presión 1012 hPa
Visibilidad 10 km o más
sin nubes por debajo de 1500 m y sin presencia de cumulonimbus.

METAR: OITP 010200Z 15004KT CAVOK 16/12 Q1012

Hora: 07:08 (02:38 UTC)


TAF: falta

Observaciones y pronósticos meteorológicos de más de 4000 aeropuertos (mensajes METAR y TAF).

Los puntos amarillos y rojos representan las estaciones disponibles.

Ponga el ratón en el punto deseado para ver el nombre de la estación.

Haga clic para ver las observaciones y los pronósticos meteorológicos.

Para cambiar el mapa : haga clic en los botones verdes con una cruz de color negro para hacer un zoom, en el botón verde con un guión para alejar o en las flechas verdes para mapas adyacentes.


METAR-TAF: